Time;durP1;ratioP1;P1;durP2;ratioP2;P2;SDS_P1;SDS_P2;PMS_P1;PMS_P2;Temp;Humidity;BMP_temperature;BMP_pressure;BME280_temperature;BME280_humidity;BME280_pressure;Samples;Min_cycle;Max_cycle;Signal;HPM_P1;HPM_P2
2021/12/01 00:02:05;;;;;;;1.25;0.30;;;16.50;90.00;;;;;;4995065;28;20476;-62
2021/12/01 00:04:31;;;;;;;0.47;0.00;;;16.50;90.20;;;;;;4994929;28;20031;-65
2021/12/01 00:06:56;;;;;;;1.20;0.20;;;16.50;89.70;;;;;;4994537;28;20041;-61
2021/12/01 00:09:22;;;;;;;1.13;0.20;;;16.50;89.70;;;;;;4995042;28;20142;-70
2021/12/01 00:11:48;;;;;;;0.98;0.20;;;16.50;89.60;;;;;;4995031;28;20031;-70
2021/12/01 00:14:13;;;;;;;0.90;0.10;;;16.50;89.30;;;;;;4994634;28;20026;-70
2021/12/01 00:16:39;;;;;;;1.58;0.20;;;16.50;89.30;;;;;;4994654;28;20523;-65
2021/12/01 00:19:04;;;;;;;0.68;0.40;;;16.50;89.20;;;;;;4994544;28;20109;-69
2021/12/01 00:21:30;;;;;;;1.38;0.20;;;16.50;89.10;;;;;;4994552;28;20030;-71
2021/12/01 00:23:55;;;;;;;0.95;0.38;;;16.50;89.10;;;;;;4994875;28;20026;-67
2021/12/01 00:26:21;;;;;;;1.42;0.10;;;16.50;89.00;;;;;;4994561;28;20365;-71
2021/12/01 00:28:47;;;;;;;0.40;0.10;;;16.50;89.50;;;;;;4994099;28;20052;-71
2021/12/01 00:31:12;;;;;;;1.85;0.35;;;16.50;88.70;;;;;;4994438;28;20018;-72
2021/12/01 00:33:40;;;;;;;0.68;0.10;;;16.50;88.70;;;;;;4994068;28;20037;-68
2021/12/01 00:36:08;;;;;;;0.73;0.10;;;16.50;88.50;;;;;;4994955;28;20041;-68
2021/12/01 00:38:35;;;;;;;0.98;0.20;;;16.50;88.30;;;;;;4994446;28;20030;-72
2021/12/01 00:41:04;;;;;;;0.85;0.22;;;16.60;88.30;;;;;;4994453;28;20423;-72
2021/12/01 00:43:29;;;;;;;1.67;0.40;;;16.50;88.10;;;;;;4993780;28;20101;-72
2021/12/01 00:45:57;;;;;;;0.95;0.20;;;16.50;88.10;;;;;;4994300;28;20708;-73
2021/12/01 00:48:24;;;;;;;2.63;0.30;;;16.50;88.10;;;;;;4993008;28;20499;-72
2021/12/01 00:50:51;;;;;;;0.30;0.20;;;16.60;88.10;;;;;;4994500;28;20029;-71
2021/12/01 00:53:17;;;;;;;1.77;0.20;;;16.50;87.90;;;;;;4993320;28;20034;-71
2021/12/01 00:55:43;;;;;;;0.93;0.25;;;16.50;87.80;;;;;;4994075;28;20034;-71
2021/12/01 00:58:11;;;;;;;1.67;0.43;;;16.50;87.70;;;;;;4993982;28;20023;-72
2021/12/01 01:00:38;;;;;;;0.40;0.10;;;16.50;87.60;;;;;;4994223;28;20027;-71
2021/12/01 01:03:04;;;;;;;0.88;0.10;;;16.50;87.50;;;;;;4994195;28;20022;-62
2021/12/01 01:05:29;;;;;;;1.77;0.20;;;16.60;87.40;;;;;;4994264;28;20178;-63
2021/12/01 01:07:55;;;;;;;0.47;0.20;;;16.60;87.40;;;;;;4993876;28;20033;-63
2021/12/01 01:18:22;;;;;;;0.47;0.10;;;16.50;87.30;;;;;;4993928;28;20049;-63
2021/12/01 01:20:48;;;;;;;0.98;0.20;;;16.50;87.30;;;;;;4993858;28;20074;-62
2021/12/01 01:23:13;;;;;;;0.55;0.15;;;16.50;87.10;;;;;;4993712;28;20387;-62
2021/12/01 01:25:39;;;;;;;0.43;0.15;;;16.50;87.00;;;;;;4993697;28;20085;-62
2021/12/01 01:28:05;;;;;;;0.73;0.30;;;16.50;87.00;;;;;;4993429;28;20076;-62
2021/12/01 01:30:31;;;;;;;1.08;0.20;;;16.50;86.80;;;;;;4994089;28;20027;-62
2021/12/01 01:32:56;;;;;;;0.68;0.17;;;16.50;86.80;;;;;;4993600;28;20022;-62
2021/12/01 01:35:24;;;;;;;1.60;0.30;;;16.50;86.70;;;;;;4993700;28;20103;-64
2021/12/01 01:37:49;;;;;;;1.80;0.20;;;16.50;86.70;;;;;;4993624;28;20026;-62
2021/12/01 01:40:15;;;;;;;0.73;0.25;;;16.50;86.70;;;;;;4992356;28;20365;-62
2021/12/01 01:42:41;;;;;;;1.08;0.25;;;16.50;86.70;;;;;;4994674;28;20157;-62
2021/12/01 01:45:07;;;;;;;0.65;0.20;;;16.50;86.60;;;;;;4997628;28;20030;-61
2021/12/01 01:47:33;;;;;;;0.95;0.35;;;16.40;86.60;;;;;;4997675;28;20426;-63
2021/12/01 01:50:18;;;;;;;1.90;0.20;;;16.40;86.60;;;;;;4997319;28;20026;-63
2021/12/01 01:52:44;;;;;;;0.38;0.10;;;16.50;86.60;;;;;;4997379;28;20018;-61
2021/12/01 01:55:09;;;;;;;0.55;0.10;;;16.50;86.60;;;;;;4997113;28;20128;-61
2021/12/01 01:57:35;;;;;;;0.57;0.10;;;16.40;86.60;;;;;;4997362;28;20019;-62
2021/12/01 02:00:03;;;;;;;0.60;0.10;;;16.40;86.50;;;;;;4997418;28;20460;-61
2021/12/01 02:02:28;;;;;;;1.05;0.10;;;16.40;86.50;;;;;;4997840;28;20042;-61
2021/12/01 02:04:56;;;;;;;0.57;0.30;;;16.40;86.40;;;;;;4997009;28;20026;-62
2021/12/01 02:07:21;;;;;;;0.28;0.10;;;16.40;86.30;;;;;;4997384;28;20035;-61
2021/12/01 02:09:47;;;;;;;1.38;0.30;;;16.40;86.20;;;;;;4997071;28;20033;-62
2021/12/01 02:12:13;;;;;;;0.98;0.10;;;16.40;86.30;;;;;;4996966;28;20022;-62
2021/12/01 02:14:39;;;;;;;0.30;0.10;;;16.40;86.20;;;;;;4995680;28;20133;-62
2021/12/01 02:17:04;;;;;;;0.43;0.17;;;16.40;86.10;;;;;;4997284;28;20019;-70
2021/12/01 02:19:30;;;;;;;0.28;0.10;;;16.40;86.00;;;;;;4996976;28;20034;-70
2021/12/01 02:21:56;;;;;;;1.17;0.10;;;16.40;85.90;;;;;;4997045;28;20030;-70
2021/12/01 02:24:23;;;;;;;0.30;0.10;;;16.40;85.90;;;;;;4997042;28;20030;-72
2021/12/01 02:26:51;;;;;;;0.85;0.13;;;16.40;85.80;;;;;;4996778;28;20460;-62
2021/12/01 02:29:27;;;;;;;0.57;0.00;;;16.40;85.80;;;;;;4997315;28;20029;-67
2021/12/01 02:31:54;;;;;;;0.80;0.20;;;16.30;85.70;;;;;;4996831;28;20023;-71
2021/12/01 02:34:23;;;;;;;0.60;0.10;;;16.40;85.70;;;;;;4996563;28;20046;-62
2021/12/01 02:36:56;;;;;;;0.20;0.03;;;16.40;85.60;;;;;;5004043;28;20026;-62
2021/12/01 02:39:22;;;;;;;0.45;0.15;;;16.30;85.70;;;;;;5015793;28;20022;-63
2021/12/01 02:41:52;;;;;;;0.80;0.10;;;16.30;85.70;;;;;;5014383;28;20068;-62
2021/12/01 02:44:18;;;;;;;0.50;0.10;;;16.30;85.60;;;;;;5016072;28;20119;-62
2021/12/01 02:46:44;;;;;;;0.82;0.20;;;16.30;85.60;;;;;;5016011;28;20088;-61
2021/12/01 02:49:11;;;;;;;0.30;0.10;;;16.30;85.60;;;;;;5016030;28;20033;-62
2021/12/01 02:51:37;;;;;;;0.43;0.20;;;16.30;85.60;;;;;;5016053;28;20109;-61
2021/12/01 02:54:05;;;;;;;0.40;0.20;;;16.20;85.60;;;;;;5015571;28;20092;-73
2021/12/01 02:56:33;;;;;;;0.50;0.20;;;16.20;85.50;;;;;;5016194;28;20041;-63
2021/12/01 02:59:00;;;;;;;1.95;0.28;;;16.20;85.50;;;;;;5015988;28;20076;-64
2021/12/01 03:01:27;;;;;;;2.55;0.50;;;16.30;85.40;;;;;;5015735;28;20030;-63
2021/12/01 03:03:53;;;;;;;0.93;0.40;;;16.30;85.40;;;;;;5014427;28;20442;-61
2021/12/01 03:06:21;;;;;;;0.73;0.40;;;16.20;85.40;;;;;;5015599;28;20062;-61
2021/12/01 03:08:47;;;;;;;0.93;0.45;;;16.20;85.30;;;;;;5015640;28;20022;-71
2021/12/01 03:11:13;;;;;;;0.85;0.30;;;16.20;85.40;;;;;;5015506;28;20018;-70
2021/12/01 03:13:39;;;;;;;1.05;0.40;;;16.20;85.50;;;;;;5015518;28;20069;-67
2021/12/01 03:16:05;;;;;;;0.60;0.32;;;16.20;85.50;;;;;;5015559;28;20022;-73
2021/12/01 03:18:31;;;;;;;1.00;0.40;;;16.20;85.40;;;;;;5015527;28;20018;-73
2021/12/01 03:20:57;;;;;;;0.98;0.50;;;16.20;85.40;;;;;;5015164;28;20494;-73
2021/12/01 03:23:23;;;;;;;2.25;0.70;;;16.20;85.30;;;;;;5015107;28;20026;-73
2021/12/01 03:25:49;;;;;;;1.92;0.52;;;16.20;85.30;;;;;;5015286;28;20029;-71
2021/12/01 03:28:16;;;;;;;0.95;0.30;;;16.20;85.30;;;;;;5015437;28;20030;-74
2021/12/01 03:30:41;;;;;;;0.50;0.30;;;16.20;85.30;;;;;;5015221;28;20022;-73
2021/12/01 03:33:14;;;;;;;1.55;0.40;;;16.20;85.30;;;;;;5014794;28;20041;-73
2021/12/01 03:35:43;;;;;;;1.30;0.50;;;16.20;85.30;;;;;;5015394;28;20037;-68
2021/12/01 03:38:09;;;;;;;2.13;0.40;;;16.20;85.20;;;;;;5014807;28;20464;-73
2021/12/01 03:40:35;;;;;;;2.42;0.52;;;16.10;85.20;;;;;;5015254;28;20026;-72
2021/12/01 03:43:01;;;;;;;1.30;0.30;;;16.10;85.30;;;;;;5013581;28;20026;-74
2021/12/01 03:45:26;;;;;;;0.70;0.32;;;16.10;85.40;;;;;;5015055;28;20026;-74
2021/12/01 03:47:52;;;;;;;2.63;0.40;;;16.10;85.30;;;;;;5014941;28;20490;-74
2021/12/01 03:50:18;;;;;;;0.70;0.47;;;16.00;85.30;;;;;;5015044;28;20033;-74
2021/12/01 03:52:43;;;;;;;1.33;0.47;;;16.00;85.20;;;;;;5013085;28;20553;-73
2021/12/01 03:55:10;;;;;;;1.77;0.43;;;16.00;85.30;;;;;;5014773;28;20081;-72
2021/12/01 03:57:36;;;;;;;1.20;0.55;;;16.00;85.30;;;;;;5014844;28;20100;-74
2021/12/01 04:00:06;;;;;;;0.85;0.35;;;16.00;85.30;;;;;;5014648;28;20032;-74
2021/12/01 04:02:32;;;;;;;0.68;0.30;;;16.00;85.20;;;;;;5013442;28;20459;-74
2021/12/01 04:04:57;;;;;;;1.38;0.55;;;16.00;85.20;;;;;;5013560;28;20105;-74
2021/12/01 04:07:23;;;;;;;1.20;0.50;;;16.00;85.00;;;;;;5014231;28;20467;-74
2021/12/01 04:09:50;;;;;;;1.00;0.45;;;16.00;85.10;;;;;;5014770;28;20017;-74
2021/12/01 04:12:16;;;;;;;1.25;0.35;;;16.00;85.10;;;;;;5014432;28;20018;-73
2021/12/01 04:14:42;;;;;;;1.05;0.28;;;16.00;85.10;;;;;;5014593;28;20479;-74
2021/12/01 04:17:08;;;;;;;0.50;0.30;;;16.00;85.10;;;;;;5014304;28;20030;-74
2021/12/01 04:19:33;;;;;;;0.40;0.20;;;16.00;85.10;;;;;;5014226;28;20022;-73
2021/12/01 04:21:59;;;;;;;0.85;0.50;;;16.00;85.10;;;;;;5014058;28;20098;-74
2021/12/01 04:24:25;;;;;;;0.90;0.40;;;16.00;85.00;;;;;;5014374;28;20100;-70
2021/12/01 04:26:50;;;;;;;1.13;0.55;;;16.00;85.00;;;;;;5014295;28;20583;-74
2021/12/01 04:29:16;;;;;;;0.77;0.20;;;15.90;85.00;;;;;;5014391;28;20462;-74
2021/12/01 04:31:42;;;;;;;1.90;0.50;;;15.90;85.00;;;;;;5014344;28;20527;-73
2021/12/01 04:34:08;;;;;;;1.00;0.50;;;15.90;85.70;;;;;;5013873;28;20113;-74
2021/12/01 04:36:43;;;;;;;1.08;0.30;;;15.90;85.00;;;;;;5014063;28;20105;-74
2021/12/01 04:39:12;;;;;;;0.93;0.30;;;15.90;85.00;;;;;;5013912;28;20490;-74
2021/12/01 04:41:48;;;;;;;2.65;0.43;;;15.90;85.10;;;;;;5013801;28;20026;-74
2021/12/01 04:44:14;;;;;;;0.47;0.28;;;15.80;85.10;;;;;;5013862;28;20028;-74
2021/12/01 04:46:43;;;;;;;0.90;0.22;;;15.90;85.00;;;;;;5014055;28;20113;-74
2021/12/01 04:49:11;;;;;;;1.88;0.40;;;15.90;85.00;;;;;;5013751;28;20018;-73
2021/12/01 04:51:39;;;;;;;1.20;0.30;;;15.90;85.80;;;;;;5013678;28;20109;-71
2021/12/01 04:54:04;;;;;;;1.50;0.40;;;15.90;84.70;;;;;;5013646;28;20117;-73
2021/12/01 04:56:30;;;;;;;1.17;0.20;;;15.80;84.50;;;;;;5014716;28;20050;-73
2021/12/01 04:58:56;;;;;;;0.55;0.25;;;15.80;84.30;;;;;;5013944;28;20034;-73
2021/12/01 05:01:22;;;;;;;1.15;0.50;;;15.80;84.70;;;;;;5013695;28;20379;-71
2021/12/01 05:03:48;;;;;;;1.17;0.35;;;15.70;84.00;;;;;;5013800;28;20116;-73
2021/12/01 05:06:15;;;;;;;1.23;0.30;;;15.70;84.10;;;;;;5013014;28;20038;-72
2021/12/01 05:08:41;;;;;;;1.55;0.30;;;15.70;84.10;;;;;;5013488;28;20156;-73
2021/12/01 05:11:07;;;;;;;0.95;0.20;;;15.60;84.50;;;;;;5013343;28;20068;-72
2021/12/01 05:13:32;;;;;;;0.28;0.13;;;15.70;84.30;;;;;;5013414;28;20026;-73
2021/12/01 05:15:58;;;;;;;2.38;0.28;;;15.70;84.20;;;;;;5013509;28;20101;-73
2021/12/01 05:18:24;;;;;;;0.85;0.25;;;15.60;84.30;;;;;;5013321;28;20032;-73
2021/12/01 05:20:49;;;;;;;2.42;0.47;;;15.60;84.50;;;;;;5013197;28;20018;-73
2021/12/01 05:23:15;;;;;;;0.50;0.22;;;15.60;84.50;;;;;;5013206;28;20109;-63
2021/12/01 05:25:45;;;;;;;1.00;0.20;;;15.60;84.40;;;;;;5013509;28;20022;-68
2021/12/01 05:28:11;;;;;;;2.15;0.40;;;15.60;84.80;;;;;;5013260;28;20053;-72
2021/12/01 05:30:37;;;;;;;2.42;0.20;;;15.60;84.80;;;;;;5012292;28;20072;-72
2021/12/01 05:33:08;;;;;;;0.40;0.13;;;15.50;84.50;;;;;;5012692;28;20030;-72
2021/12/01 05:35:35;;;;;;;0.55;0.20;;;15.60;84.70;;;;;;5013656;28;20065;-68
2021/12/01 05:38:03;;;;;;;0.73;0.25;;;15.60;84.60;;;;;;5013304;28;20069;-72
2021/12/01 05:40:28;;;;;;;0.75;0.28;;;15.60;84.90;;;;;;5013300;28;20105;-72
2021/12/01 05:42:54;;;;;;;1.02;0.20;;;15.60;84.90;;;;;;5013032;28;20057;-73
2021/12/01 05:45:20;;;;;;;0.47;0.13;;;15.50;84.80;;;;;;5013231;28;20026;-72
2021/12/01 05:47:45;;;;;;;1.38;0.50;;;15.50;84.80;;;;;;5003949;28;20026;-72
2021/12/01 05:50:11;;;;;;;0.90;0.25;;;15.50;85.00;;;;;;4993424;28;20027;-72
2021/12/01 05:52:37;;;;;;;1.63;0.22;;;15.50;85.00;;;;;;4992246;28;20033;-72
2021/12/01 05:55:04;;;;;;;1.13;0.50;;;15.50;85.10;;;;;;5005819;28;20107;-72
2021/12/01 05:57:30;;;;;;;1.65;0.30;;;15.50;85.20;;;;;;5005279;28;20026;-73
2021/12/01 05:59:55;;;;;;;0.40;0.20;;;15.50;85.10;;;;;;4997985;28;20034;-72
2021/12/01 06:02:21;;;;;;;2.10;0.30;;;15.50;85.00;;;;;;4995275;28;20468;-72
2021/12/01 06:04:48;;;;;;;1.08;0.40;;;15.50;85.30;;;;;;4999771;28;20042;-72
2021/12/01 06:07:14;;;;;;;0.80;0.20;;;15.50;85.10;;;;;;4999420;28;20052;-72
2021/12/01 06:09:39;;;;;;;1.27;0.15;;;15.50;86.00;;;;;;5009858;28;20022;-72
2021/12/01 06:12:06;;;;;;;0.80;0.25;;;15.50;85.20;;;;;;5011675;28;20530;-72
2021/12/01 06:14:35;;;;;;;0.65;0.20;;;15.40;85.20;;;;;;5012468;28;20050;-73
2021/12/01 06:17:00;;;;;;;1.02;0.40;;;15.40;85.30;;;;;;5012081;28;20025;-71
2021/12/01 06:19:26;;;;;;;1.58;0.40;;;15.40;85.40;;;;;;5012692;28;20481;-73
2021/12/01 06:21:52;;;;;;;0.88;0.40;;;15.40;85.50;;;;;;5013158;28;20386;-73
2021/12/01 06:24:17;;;;;;;0.70;0.28;;;15.40;85.60;;;;;;5012556;28;20030;-65
2021/12/01 06:26:43;;;;;;;1.67;0.13;;;15.40;85.60;;;;;;5012858;28;20021;-73
2021/12/01 06:29:08;;;;;;;1.10;0.30;;;15.40;85.50;;;;;;5015952;28;20030;-70
2021/12/01 06:31:34;;;;;;;0.40;0.20;;;15.40;85.70;;;;;;5015836;28;20033;-73
2021/12/01 06:34:00;;;;;;;8.82;0.60;;;15.40;85.60;;;;;;5009410;28;20030;-67
2021/12/01 06:36:26;;;;;;;14.07;1.30;;;15.40;85.80;;;;;;4999706;28;20061;-64
2021/12/01 06:38:52;;;;;;;4.78;0.35;;;15.50;87.00;;;;;;5001537;28;20486;-62
2021/12/01 06:41:17;;;;;;;8.48;1.10;;;15.40;86.60;;;;;;5004985;28;20056;-73
2021/12/01 06:43:44;;;;;;;8.38;0.75;;;15.50;87.10;;;;;;5002252;28;20029;-72
2021/12/01 06:46:09;;;;;;;13.82;1.33;;;15.60;87.30;;;;;;5008714;28;20033;-71
2021/12/01 06:48:35;;;;;;;10.73;0.68;;;15.50;87.60;;;;;;5003335;28;20030;-71
2021/12/01 06:51:01;;;;;;;4.90;0.88;;;15.60;88.00;;;;;;4996300;28;20056;-72
2021/12/01 06:53:27;;;;;;;7.40;0.65;;;15.60;88.00;;;;;;5004081;28;20038;-72
2021/12/01 06:55:53;;;;;;;4.40;0.50;;;15.60;88.00;;;;;;5009112;28;20034;-75
2021/12/01 06:58:19;;;;;;;6.82;0.57;;;15.60;88.10;;;;;;5001419;28;20030;-70
2021/12/01 07:00:45;;;;;;;6.75;0.70;;;15.50;88.10;;;;;;4997663;28;20030;-70
2021/12/01 07:03:11;;;;;;;6.72;0.75;;;15.50;88.40;;;;;;4994928;28;20062;-70
2021/12/01 07:05:36;;;;;;;12.18;1.15;;;15.50;88.50;;;;;;4996276;28;20032;-71
2021/12/01 07:08:03;;;;;;;9.77;0.93;;;15.50;88.50;;;;;;5006948;28;20058;-70
2021/12/01 07:10:29;;;;;;;5.90;0.45;;;15.60;88.40;;;;;;4995815;28;20086;-69
2021/12/01 07:12:54;;;;;;;3.08;0.43;;;15.50;88.40;;;;;;4995676;28;20057;-72
2021/12/01 07:15:20;;;;;;;3.17;0.45;;;15.50;88.50;;;;;;4994199;28;20069;-71
2021/12/01 07:17:46;;;;;;;2.78;0.32;;;15.50;88.60;;;;;;4995842;28;20029;-71
2021/12/01 07:20:12;;;;;;;1.88;0.20;;;15.50;88.60;;;;;;4995762;28;20057;-71
2021/12/01 07:22:38;;;;;;;5.05;0.25;;;15.50;88.50;;;;;;4995525;28;20019;-71
2021/12/01 07:25:04;;;;;;;8.82;0.40;;;15.50;88.50;;;;;;4995801;28;20026;-71
2021/12/01 07:27:30;;;;;;;2.38;0.38;;;15.60;88.30;;;;;;4995752;28;20026;-71
2021/12/01 07:29:55;;;;;;;0.95;0.15;;;15.60;88.00;;;;;;4995468;28;20218;-70
2021/12/01 07:32:21;;;;;;;1.33;0.20;;;15.70;87.90;;;;;;4995324;28;20033;-70
2021/12/01 07:34:47;;;;;;;4.40;0.32;;;15.70;88.00;;;;;;4994279;28;20475;-70
2021/12/01 07:37:15;;;;;;;2.03;0.10;;;15.70;88.10;;;;;;4995807;28;20069;-70
2021/12/01 07:39:42;;;;;;;0.60;0.10;;;15.60;88.20;;;;;;4994844;28;20063;-70
2021/12/01 07:42:09;;;;;;;0.95;0.25;;;15.60;88.60;;;;;;4995400;28;20141;-70
2021/12/01 07:44:35;;;;;;;0.98;0.13;;;15.60;88.70;;;;;;4995126;28;20062;-69
2021/12/01 07:47:01;;;;;;;0.65;0.28;;;15.60;88.90;;;;;;4995367;28;20030;-69
2021/12/01 07:49:27;;;;;;;1.70;0.10;;;15.60;88.90;;;;;;4995738;28;20491;-67
2021/12/01 07:51:52;;;;;;;1.92;0.43;;;15.60;88.90;;;;;;4995526;28;20109;-68
2021/12/01 07:54:19;;;;;;;1.25;0.15;;;15.70;88.80;;;;;;5004841;28;20026;-68
2021/12/01 07:56:45;;;;;;;1.55;0.20;;;15.70;88.60;;;;;;5000500;28;20026;-65
2021/12/01 07:59:14;;;;;;;1.67;0.10;;;15.70;88.70;;;;;;4994928;28;20049;-69
2021/12/01 08:01:41;;;;;;;1.55;0.10;;;15.70;88.70;;;;;;4996621;28;20022;-69
2021/12/01 08:04:07;;;;;;;0.73;0.10;;;15.80;88.60;;;;;;5014396;28;20025;-69
2021/12/01 08:06:33;;;;;;;0.45;0.10;;;15.80;88.50;;;;;;5013937;28;20091;-67
2021/12/01 08:09:02;;;;;;;0.45;0.00;;;15.90;88.20;;;;;;5014692;28;20018;-68
2021/12/01 08:11:28;;;;;;;2.15;0.10;;;15.90;88.10;;;;;;5014268;28;20038;-68
2021/12/01 08:13:54;;;;;;;0.95;0.10;;;15.90;88.10;;;;;;5002533;28;20391;-68
2021/12/01 08:16:19;;;;;;;3.40;0.10;;;15.90;88.20;;;;;;4994659;28;20026;-68
2021/12/01 08:18:51;;;;;;;1.90;0.15;;;15.90;87.90;;;;;;4994905;28;20049;-68
2021/12/01 08:21:17;;;;;;;1.23;0.20;;;15.90;88.00;;;;;;4994571;28;20033;-68
2021/12/01 08:23:46;;;;;;;18.08;0.90;;;15.90;88.10;;;;;;4994931;28;20018;-66
2021/12/01 08:26:14;;;;;;;1.25;0.10;;;15.90;88.40;;;;;;5003378;28;20514;-64
2021/12/01 08:28:46;;;;;;;1.20;0.22;;;15.90;88.30;;;;;;5013804;28;20033;-68
2021/12/01 08:31:13;;;;;;;2.40;0.30;;;15.90;88.40;;;;;;5012888;28;20084;-66
2021/12/01 08:33:40;;;;;;;0.98;0.10;;;15.90;88.30;;;;;;5013901;28;20038;-63
2021/12/01 08:36:05;;;;;;;3.25;0.20;;;15.90;88.40;;;;;;4994792;28;20019;-63
2021/12/01 08:38:31;;;;;;;0.88;0.30;;;15.90;88.50;;;;;;4994224;28;20034;-66
2021/12/01 08:40:58;;;;;;;1.75;0.22;;;15.90;88.60;;;;;;4993120;28;20061;-67
2021/12/01 08:43:23;;;;;;;1.73;0.40;;;15.90;88.60;;;;;;4993848;28;20053;-66
2021/12/01 08:45:49;;;;;;;2.63;0.20;;;15.90;88.60;;;;;;4994385;28;20061;-65
2021/12/01 08:48:14;;;;;;;1.67;0.30;;;15.90;88.70;;;;;;4994010;28;20038;-62
2021/12/01 08:50:40;;;;;;;1.88;0.20;;;16.00;88.70;;;;;;5006739;28;20108;-64
2021/12/01 08:53:06;;;;;;;2.03;0.35;;;15.90;88.60;;;;;;5013117;28;20080;-67
2021/12/01 08:55:32;;;;;;;1.65;0.50;;;15.90;88.90;;;;;;5013735;28;20475;-63
2021/12/01 08:57:57;;;;;;;2.80;0.60;;;15.90;88.80;;;;;;5013400;28;20026;-64
2021/12/01 09:00:23;;;;;;;1.50;0.50;;;15.90;88.70;;;;;;5013594;28;20097;-67
2021/12/01 09:02:49;;;;;;;2.35;0.80;;;15.80;89.30;;;;;;5012123;28;20084;-63
2021/12/01 09:05:14;;;;;;;1.08;0.30;;;15.70;88.90;;;;;;5010815;28;20121;-65
2021/12/01 09:07:40;;;;;;;2.67;0.40;;;15.80;89.70;;;;;;5012447;28;20066;-67
2021/12/01 09:10:07;;;;;;;1.63;0.50;;;15.80;89.50;;;;;;5000861;28;20026;-63
2021/12/01 09:12:33;;;;;;;2.05;0.75;;;15.90;89.40;;;;;;4992418;28;20037;-66
2021/12/01 09:14:59;;;;;;;3.83;0.43;;;15.90;89.20;;;;;;4993774;28;20488;-64
2021/12/01 09:17:25;;;;;;;3.05;1.05;;;15.90;89.20;;;;;;4993970;28;20054;-62
2021/12/01 09:19:52;;;;;;;8.45;3.15;;;15.90;89.20;;;;;;4993078;28;20114;-64
2021/12/01 09:22:18;;;;;;;7.40;3.17;;;16.00;88.60;;;;;;5000102;28;20023;-63
2021/12/01 09:24:45;;;;;;;4.70;1.92;;;15.90;88.70;;;;;;4991548;28;20022;-66
2021/12/01 09:27:11;;;;;;;8.60;3.92;;;15.90;88.90;;;;;;4993184;28;20460;-65
2021/12/01 09:29:37;;;;;;;8.88;2.80;;;15.80;88.40;;;;;;4993424;28;20034;-64
2021/12/01 09:32:04;;;;;;;9.07;2.85;;;15.70;88.00;;;;;;4993602;28;20082;-67
2021/12/01 09:34:29;;;;;;;7.60;2.47;;;15.80;87.80;;;;;;4996840;28;20041;-66
2021/12/01 09:36:56;;;;;;;5.70;1.80;;;15.70;87.50;;;;;;5008251;28;20035;-68
2021/12/01 09:39:23;;;;;;;5.10;1.55;;;15.70;87.60;;;;;;4997593;28;20037;-64
2021/12/01 09:41:49;;;;;;;7.43;1.65;;;15.60;87.40;;;;;;5012874;28;20101;-67
2021/12/01 09:44:15;;;;;;;4.78;1.52;;;15.60;87.30;;;;;;5007788;28;20511;-63
2021/12/01 09:46:41;;;;;;;3.88;1.20;;;15.50;87.30;;;;;;5005828;28;20054;-68
2021/12/01 09:49:07;;;;;;;7.72;1.73;;;15.50;87.10;;;;;;4993734;28;20027;-65
2021/12/01 09:51:34;;;;;;;6.20;1.63;;;15.50;87.30;;;;;;4993552;28;20522;-68
2021/12/01 09:54:01;;;;;;;9.32;1.63;;;15.50;87.50;;;;;;4994508;28;20038;-67
2021/12/01 09:56:28;;;;;;;3.47;0.90;;;15.50;87.10;;;;;;4995814;28;20373;-67
2021/12/01 09:58:54;;;;;;;6.45;1.08;;;15.50;86.70;;;;;;4993351;28;20026;-67
2021/12/01 10:01:22;;;;;;;6.35;1.10;;;15.50;87.10;;;;;;4993402;28;20069;-67
2021/12/01 10:03:48;;;;;;;4.25;0.82;;;15.50;86.50;;;;;;5005540;28;20068;-67
2021/12/01 10:06:17;;;;;;;4.55;0.80;;;15.50;86.70;;;;;;5002698;28;20498;-66
2021/12/01 10:09:00;;;;;;;6.57;1.33;;;15.50;85.60;;;;;;5000616;28;20034;-68
2021/12/01 10:11:38;;;;;;;8.52;1.25;;;15.50;85.20;;;;;;4997502;28;20494;-67
2021/12/01 10:14:12;;;;;;;7.30;1.15;;;15.50;84.40;;;;;;5022833;28;20471;-66
2021/12/01 10:16:41;;;;;;;5.65;0.82;;;15.50;85.20;;;;;;5013767;28;20072;-67
2021/12/01 10:19:10;;;;;;;7.20;1.13;;;15.50;85.00;;;;;;5006619;28;20026;-68
2021/12/01 10:21:49;;;;;;;4.13;0.63;;;15.50;85.70;;;;;;5015737;28;20022;-67
2021/12/01 10:24:25;;;;;;;4.18;1.15;;;15.50;85.20;;;;;;4997569;28;20022;-65
2021/12/01 10:26:54;;;;;;;4.82;0.93;;;15.50;84.20;;;;;;4997103;28;20029;-64
2021/12/01 10:29:23;;;;;;;4.85;0.65;;;15.50;84.90;;;;;;5007975;28;20026;-64
2021/12/01 10:31:59;;;;;;;2.17;0.70;;;15.50;84.10;;;;;;5012133;28;20430;-64
2021/12/01 10:34:40;;;;;;;3.25;0.85;;;15.50;85.20;;;;;;5004537;28;20042;-65
2021/12/01 10:37:33;;;;;;;2.33;0.60;;;15.50;84.10;;;;;;4996707;28;20034;-65
2021/12/01 10:40:11;;;;;;;4.60;0.57;;;15.50;83.30;;;;;;4996376;28;20113;-64
2021/12/01 10:42:53;;;;;;;2.58;0.47;;;15.50;84.20;;;;;;4996692;28;20109;-64
2021/12/01 10:45:29;;;;;;;3.75;0.88;;;15.50;84.10;;;;;;4999843;28;20048;-64
2021/12/01 10:47:55;;;;;;;3.17;0.50;;;15.50;83.20;;;;;;5015362;28;20030;-66
2021/12/01 10:50:23;;;;;;;3.75;1.08;;;15.50;83.40;;;;;;5014365;28;20022;-64
2021/12/01 10:53:08;;;;;;;5.50;0.70;;;15.50;82.60;;;;;;5013823;28;20391;-67
2021/12/01 10:55:40;;;;;;;6.22;0.52;;;15.40;83.00;;;;;;5014454;28;20045;-66
2021/12/01 10:58:09;;;;;;;3.92;0.50;;;15.40;82.70;;;;;;5015875;28;20018;-64
2021/12/01 11:00:43;;;;;;;3.17;0.45;;;15.40;83.10;;;;;;5015182;28;20133;-67
2021/12/01 11:03:14;;;;;;;3.08;0.60;;;15.40;82.40;;;;;;5004394;28;20022;-67
2021/12/01 11:05:45;;;;;;;2.67;0.50;;;15.50;82.00;;;;;;5000964;28;20030;-67
2021/12/01 11:08:18;;;;;;;3.65;0.77;;;15.50;82.00;;;;;;5006044;28;20484;-66
2021/12/01 11:10:46;;;;;;;5.10;1.02;;;15.60;82.00;;;;;;4998828;28;20042;-66
2021/12/01 11:13:13;;;;;;;5.07;0.70;;;15.60;81.90;;;;;;5009587;28;20050;-66
2021/12/01 11:15:44;;;;;;;5.47;0.60;;;15.60;83.20;;;;;;5005488;28;20109;-66
2021/12/01 11:18:21;;;;;;;4.03;1.25;;;15.70;82.30;;;;;;4996071;28;20046;-70
2021/12/01 11:20:58;;;;;;;4.20;0.80;;;15.70;83.20;;;;;;4995537;28;20026;-70
2021/12/01 11:23:33;;;;;;;5.10;1.23;;;15.70;82.80;;;;;;4995690;28;20030;-69
2021/12/01 11:26:18;;;;;;;5.95;1.65;;;15.80;82.20;;;;;;5000831;28;20030;-65
2021/12/01 11:28:45;;;;;;;4.78;0.80;;;15.80;83.60;;;;;;5001726;28;20106;-67
2021/12/01 11:31:19;;;;;;;3.45;1.30;;;15.80;84.00;;;;;;5013286;28;20026;-67
2021/12/01 11:33:46;;;;;;;4.20;1.00;;;15.90;83.80;;;;;;5001388;28;20242;-69
2021/12/01 11:36:19;;;;;;;5.85;1.05;;;16.00;84.00;;;;;;4994841;28;20034;-67
2021/12/01 11:38:52;;;;;;;6.35;1.00;;;16.00;84.40;;;;;;5000304;28;20022;-68
2021/12/01 11:41:18;;;;;;;6.97;1.00;;;16.00;84.50;;;;;;5006129;28;20486;-69
2021/12/01 11:43:46;;;;;;;5.05;0.90;;;16.00;84.30;;;;;;5005062;28;20101;-66
2021/12/01 11:46:11;;;;;;;6.00;1.08;;;16.00;84.00;;;;;;4997871;28;20477;-68
2021/12/01 11:48:42;;;;;;;4.35;0.90;;;16.00;83.20;;;;;;5000429;28;20018;-65
2021/12/01 11:51:35;;;;;;;7.65;1.23;;;16.00;85.10;;;;;;5004667;28;20049;-66
2021/12/01 11:54:28;;;;;;;4.10;0.52;;;16.10;84.80;;;;;;5011992;28;20064;-69
2021/12/01 11:56:59;;;;;;;6.50;1.17;;;16.10;84.40;;;;;;4996758;28;20102;-69
2021/12/01 11:59:36;;;;;;;9.05;1.02;;;16.10;85.20;;;;;;4999148;28;20053;-68
2021/12/01 12:02:08;;;;;;;6.55;0.90;;;16.20;84.30;;;;;;5000025;28;20032;-68
2021/12/01 12:04:43;;;;;;;6.35;0.85;;;16.20;83.80;;;;;;5007401;28;20041;-68
2021/12/01 12:07:12;;;;;;;4.93;1.08;;;16.30;85.60;;;;;;5005797;28;20080;-65
2021/12/01 12:09:39;;;;;;;5.88;0.80;;;16.30;85.40;;;;;;5005248;28;20085;-68
2021/12/01 12:12:13;;;;;;;10.02;1.17;;;16.40;86.30;;;;;;4996197;28;20097;-68
2021/12/01 12:14:45;;;;;;;4.65;1.10;;;16.40;85.60;;;;;;5001453;28;20036;-69
2021/12/01 12:17:14;;;;;;;7.80;0.98;;;16.50;85.70;;;;;;5007742;28;20014;-69
2021/12/01 12:19:43;;;;;;;8.15;1.08;;;16.40;85.30;;;;;;4998269;28;20525;-66
2021/12/01 12:22:14;;;;;;;7.20;0.68;;;16.60;86.60;;;;;;5005038;28;20021;-65
2021/12/01 12:24:53;;;;;;;8.73;1.23;;;16.60;85.10;;;;;;5001355;28;20030;-68
2021/12/01 12:27:37;;;;;;;8.88;0.88;;;16.60;84.50;;;;;;5000739;28;20093;-64
2021/12/01 12:30:34;;;;;;;8.20;1.23;;;16.60;84.50;;;;;;5002253;28;20060;-67
2021/12/01 12:33:28;;;;;;;11.85;1.65;;;16.60;84.10;;;;;;4995062;28;20484;-67
2021/12/01 12:35:57;;;;;;;8.48;1.50;;;16.60;83.80;;;;;;5004797;28;20100;-67
2021/12/01 12:38:24;;;;;;;8.98;0.80;;;16.60;83.20;;;;;;5000269;28;20041;-68
2021/12/01 12:41:10;;;;;;;8.02;1.08;;;16.60;82.60;;;;;;5007319;28;20014;-69
2021/12/01 12:43:44;;;;;;;6.38;1.15;;;16.70;82.90;;;;;;5007453;28;20024;-66
2021/12/01 12:46:17;;;;;;;6.03;0.90;;;16.60;82.50;;;;;;5002526;28;20025;-68
2021/12/01 12:48:49;;;;;;;6.20;1.02;;;16.70;82.40;;;;;;5004114;28;20026;-69
2021/12/01 12:51:25;;;;;;;9.23;1.02;;;16.70;81.90;;;;;;5002820;28;20049;-71
2021/12/01 12:54:00;;;;;;;7.57;1.70;;;16.70;81.80;;;;;;4996689;28;20046;-71
2021/12/01 12:56:29;;;;;;;8.10;1.70;;;16.70;81.50;;;;;;5002180;28;20471;-71
2021/12/01 12:59:19;;;;;;;10.98;1.88;;;16.70;81.60;;;;;;5006037;28;20517;-71